createdAt,value
2019-04-11T10:42:55.949Z,50.3
2019-04-11T10:47:57.805Z,50.1
2019-04-11T10:53:00.604Z,48.7
2019-04-11T10:58:02.759Z,47.9
2019-04-11T11:03:06.130Z,48.2
2019-04-11T11:08:07.598Z,47.9
2019-04-11T11:13:10.022Z,47
2019-04-11T11:23:16.095Z,46.6
2019-04-11T11:28:17.885Z,46.4
2019-04-11T11:33:20.289Z,46.7
2019-04-11T11:38:22.192Z,44.6
2019-04-11T11:43:25.232Z,44.5
2019-04-11T11:48:27.938Z,44.9
2019-04-11T11:53:29.890Z,42.9
2019-04-11T11:58:33.296Z,42.9
2019-04-11T12:08:36.978Z,40.2
2019-04-11T12:13:40.701Z,37.8
2019-04-11T12:18:47.079Z,37.2
2019-04-11T12:23:54.302Z,38.1
2019-04-11T12:28:47.777Z,37.4
2019-04-11T12:33:49.912Z,36.5
2019-04-11T12:38:54.589Z,37.4
2019-04-11T12:43:53.906Z,39.3
2019-04-11T12:48:56.369Z,38.8
2019-04-11T12:53:58.891Z,38.5
2019-04-11T12:59:01.214Z,37.2
2019-04-11T13:04:03.702Z,34.3
2019-04-11T13:09:06.116Z,35.3
2019-04-11T13:14:08.531Z,33.5
2019-04-11T13:19:11.014Z,35.8
2019-04-11T13:24:13.417Z,35.3
2019-04-11T13:29:16.026Z,34.6
2019-04-11T13:34:18.298Z,34.7
2019-04-11T13:39:20.994Z,35.6
2019-04-11T13:44:23.262Z,36.4
2019-04-11T13:54:28.069Z,37.3
2019-04-11T13:59:30.509Z,37.4
2019-04-11T14:04:33.029Z,38.2
2019-04-11T14:09:35.468Z,38.9
2019-04-11T14:14:37.863Z,37.1
2019-04-11T14:19:41.542Z,34.9
2019-04-11T14:24:42.715Z,32.7
2019-04-11T14:29:45.213Z,30.7
2019-04-11T14:34:47.823Z,30.9
2019-04-11T14:39:50.085Z,33.3
2019-04-11T14:44:52.599Z,32.4
2019-04-11T14:49:54.982Z,33.3
2019-04-11T14:54:57.583Z,28.5
2019-04-11T14:59:59.797Z,28.5
2019-04-11T15:05:02.259Z,28.3
2019-04-11T15:10:04.712Z,26.6
2019-04-11T15:15:07.183Z,26.3
2019-04-11T15:20:09.577Z,27
2019-04-11T15:25:12.032Z,28
2019-04-11T15:30:16.650Z,27.9
2019-04-11T15:35:16.892Z,28
2019-04-11T15:40:19.345Z,29.1
2019-04-11T15:45:21.773Z,30.8
2019-04-11T15:50:24.585Z,32.3
2019-04-11T15:55:26.667Z,33.3
2019-04-11T16:05:32.210Z,34.8
2019-04-11T16:10:36.294Z,35.3
2019-04-11T16:15:36.434Z,35.9
2019-04-11T16:20:38.869Z,36
2019-04-11T16:25:41.309Z,36.7
2019-04-11T16:30:43.766Z,36.7
2019-04-11T16:35:46.230Z,36.7
2019-04-11T16:40:50.866Z,37.3
2019-04-11T16:45:54.566Z,38.2
2019-04-11T16:50:53.543Z,38.8
